Airfield :
LOGIN :

Register | Disclaimer

   EN    FR    IT 

 










Legend :    VFR   Marginal VFR   IFR   Intensive IFR   Very Intensive IFR
Visi :
Ceiling :
>= 8 km
>= 3000ft
5 to 8 km
1000 to 3000 ft
1500m to 5 km
500 to 1000 ft
800 to 1500m
200 to 500 ft
< 800m
< 200 ft
Symbols :   Thunderstorms  Fog  Heavy snow  Heavy precipitations  Wind > 20 kt
SIGMETs :     Misc.  Thunderstorms  Icing  Turbulence  Mountain Waves  Volcanic Ashes







- Airport Elevation : 412 ft
- IATA code : ORE
- Download approach charts


LFOJ - Orleans

CURRENT METAR :
  • 181530Z AUTO 28018KT 4000 -RA BR SCT009/// SCT018/// BKN028/// ///TCU 11/10 Q1008

EXPIRED METARs :
  • 181500Z AUTO 24019KT 9999 -RA BKN009/// OVC013/// ///TCU 12/11 Q1007
  • 181430Z AUTO 23020KT 9999 BKN011/// OVC018/// ///TCU 12/11 Q1007
  • 181400Z AUTO 24020KT 9000 4000 -DZ OVC009 11/11 Q1007
  • 181330Z AUTO 24021KT 9999 BKN010 OVC014 12/10 Q1008
  • 181300Z AUTO 24021KT 9999 BKN008 OVC013 11/10 Q1008

TAF AMD TAF LFOJ
Valid from the 18 at 04:00 until the 19 at 03:00 UTC


180430Z 1804/1903 22020G30KT 9999 BKN013 BKN020
TEMPO 1804/1813 24026G40KT 4000 -RA OVC007
BECMG 1813/1815 BKN020
TEMPO 1813/1818 28020G30KT 3000 RA BKN012
BECMG 1818/1821 BKN030 BKN045
BECMG 1821/1824 25012KT
PROB30
TEMPO 1900/1903 4000 -SHRA SCT020TCU
No reported NOTAMs for that airfield.



MET'MAP, your aeronautical weather chart ! - Copyright ORBIFLY December 2007 - Disclaimer

ORBIFLY MET'MAP TEAM :

Programming & Development : Alexandra Zaïnal
Concept & Development : Baudouin d'Aumeries
Co-Development & Prog : Marc-Olivier Méhu
Technical & hardware support : Manuel Goepfert

Contact : metmap@orbifly.com




SOURCES & CREDITS :

   NOAA